sensor_id;sensor_type;location;lat;lon;timestamp;temperature;humidity
44886;DHT22;36669;51.428;21.162;2022-07-03T00:00:52;17.40;99.90
44886;DHT22;36669;51.428;21.162;2022-07-03T00:03:18;17.30;99.90
44886;DHT22;36669;51.428;21.162;2022-07-03T00:05:45;17.30;99.90
44886;DHT22;36669;51.428;21.162;2022-07-03T00:08:13;17.30;99.90
44886;DHT22;36669;51.428;21.162;2022-07-03T00:10:40;17.30;99.90
44886;DHT22;36669;51.428;21.162;2022-07-03T00:13:07;17.30;99.90
44886;DHT22;36669;51.428;21.162;2022-07-03T00:15:34;17.30;99.90
44886;DHT22;36669;51.428;21.162;2022-07-03T00:18:01;17.30;99.90
44886;DHT22;36669;51.428;21.162;2022-07-03T00:20:44;17.30;99.90
44886;DHT22;36669;51.428;21.162;2022-07-03T00:23:15;17.30;99.90
44886;DHT22;36669;51.428;21.162;2022-07-03T00:25:44;17.30;99.90
44886;DHT22;36669;51.428;21.162;2022-07-03T00:28:11;17.20;99.90
44886;DHT22;36669;51.428;21.162;2022-07-03T00:30:38;17.30;99.90
44886;DHT22;36669;51.428;21.162;2022-07-03T00:33:09;17.30;99.90
44886;DHT22;36669;51.428;21.162;2022-07-03T00:35:46;17.20;99.90
44886;DHT22;36669;51.428;21.162;2022-07-03T00:38:14;17.20;99.90
44886;DHT22;36669;51.428;21.162;2022-07-03T00:40:41;17.20;99.90
44886;DHT22;36669;51.428;21.162;2022-07-03T00:43:15;17.30;99.90
44886;DHT22;36669;51.428;21.162;2022-07-03T00:45:46;17.20;99.90
44886;DHT22;36669;51.428;21.162;2022-07-03T00:48:15;17.20;99.90
44886;DHT22;36669;51.428;21.162;2022-07-03T00:50:48;17.20;99.90
44886;DHT22;36669;51.428;21.162;2022-07-03T00:53:27;17.30;99.90
44886;DHT22;36669;51.428;21.162;2022-07-03T00:55:56;17.30;99.90
44886;DHT22;36669;51.428;21.162;2022-07-03T00:58:23;17.20;99.90
44886;DHT22;36669;51.428;21.162;2022-07-03T01:00:52;17.30;99.90
44886;DHT22;36669;51.428;21.162;2022-07-03T01:03:21;17.30;99.90
44886;DHT22;36669;51.428;21.162;2022-07-03T01:05:56;17.20;99.90
44886;DHT22;36669;51.428;21.162;2022-07-03T01:11:40;17.10;99.90
44886;DHT22;36669;51.428;21.162;2022-07-03T01:14:57;17.10;99.90
44886;DHT22;36669;51.428;21.162;2022-07-03T01:17:32;17.00;99.90
44886;DHT22;36669;51.428;21.162;2022-07-03T01:20:04;17.00;99.90
44886;DHT22;36669;51.428;21.162;2022-07-03T01:22:48;16.90;99.90
44886;DHT22;36669;51.428;21.162;2022-07-03T01:28:16;16.80;99.90
44886;DHT22;36669;51.428;21.162;2022-07-03T01:30:54;16.70;99.90
44886;DHT22;36669;51.428;21.162;2022-07-03T01:33:34;16.70;99.90
44886;DHT22;36669;51.428;21.162;2022-07-03T01:36:05;16.60;99.90
44886;DHT22;36669;51.428;21.162;2022-07-03T01:38:38;16.60;99.90
44886;DHT22;36669;51.428;21.162;2022-07-03T01:41:10;16.60;99.90
44886;DHT22;36669;51.428;21.162;2022-07-03T01:43:48;16.50;99.90
44886;DHT22;36669;51.428;21.162;2022-07-03T01:46:28;16.50;99.90
44886;DHT22;36669;51.428;21.162;2022-07-03T01:48:59;16.50;99.90
44886;DHT22;36669;51.428;21.162;2022-07-03T01:51:32;16.50;99.90
44886;DHT22;36669;51.428;21.162;2022-07-03T01:54:11;16.50;99.90
44886;DHT22;36669;51.428;21.162;2022-07-03T01:56:39;16.50;99.90
44886;DHT22;36669;51.428;21.162;2022-07-03T01:59:06;16.50;99.90
44886;DHT22;36669;51.428;21.162;2022-07-03T02:07:40;16.50;99.90
44886;DHT22;36669;51.428;21.162;2022-07-03T02:10:10;16.50;99.90
44886;DHT22;36669;51.428;21.162;2022-07-03T02:13:00;16.50;99.90
44886;DHT22;36669;51.428;21.162;2022-07-03T02:15:32;16.40;99.90
44886;DHT22;36669;51.428;21.162;2022-07-03T02:21:19;16.40;99.90
44886;DHT22;36669;51.428;21.162;2022-07-03T02:26:42;16.40;99.90
44886;DHT22;36669;51.428;21.162;2022-07-03T02:29:26;16.40;99.90
44886;DHT22;36669;51.428;21.162;2022-07-03T02:32:11;16.30;99.90
44886;DHT22;36669;51.428;21.162;2022-07-03T02:34:45;16.30;99.90
44886;DHT22;36669;51.428;21.162;2022-07-03T02:37:20;16.30;99.90
44886;DHT22;36669;51.428;21.162;2022-07-03T02:40:16;16.30;99.90
44886;DHT22;36669;51.428;21.162;2022-07-03T02:54:47;16.30;99.90
44886;DHT22;36669;51.428;21.162;2022-07-03T02:57:29;16.20;99.90
44886;DHT22;36669;51.428;21.162;2022-07-03T03:00:08;16.20;99.90
44886;DHT22;36669;51.428;21.162;2022-07-03T03:05:25;16.20;99.90
44886;DHT22;36669;51.428;21.162;2022-07-03T03:11:02;16.20;99.90
44886;DHT22;36669;51.428;21.162;2022-07-03T03:13:32;16.20;99.90
44886;DHT22;36669;51.428;21.162;2022-07-03T03:16:05;16.10;99.90
44886;DHT22;36669;51.428;21.162;2022-07-03T03:18:40;16.10;99.90
44886;DHT22;36669;51.428;21.162;2022-07-03T03:21:20;16.10;99.90
44886;DHT22;36669;51.428;21.162;2022-07-03T03:23:51;16.20;99.90
44886;DHT22;36669;51.428;21.162;2022-07-03T03:26:26;16.10;99.90
44886;DHT22;36669;51.428;21.162;2022-07-03T03:28:52;16.20;99.90
44886;DHT22;36669;51.428;21.162;2022-07-03T03:31:22;16.20;99.90
44886;DHT22;36669;51.428;21.162;2022-07-03T03:33:52;16.30;99.90
44886;DHT22;36669;51.428;21.162;2022-07-03T03:36:20;16.30;99.90
44886;DHT22;36669;51.428;21.162;2022-07-03T03:38:49;16.40;99.90
44886;DHT22;36669;51.428;21.162;2022-07-03T03:41:16;16.40;99.90
44886;DHT22;36669;51.428;21.162;2022-07-03T03:43:44;16.40;99.90
44886;DHT22;36669;51.428;21.162;2022-07-03T03:46:11;16.50;99.90
44886;DHT22;36669;51.428;21.162;2022-07-03T03:48:38;16.50;99.90
44886;DHT22;36669;51.428;21.162;2022-07-03T03:51:05;16.50;99.90
44886;DHT22;36669;51.428;21.162;2022-07-03T03:53:32;16.60;99.90
44886;DHT22;36669;51.428;21.162;2022-07-03T03:56:04;16.50;99.90
44886;DHT22;36669;51.428;21.162;2022-07-03T03:58:35;16.60;99.90
44886;DHT22;36669;51.428;21.162;2022-07-03T04:01:04;16.60;99.90
44886;DHT22;36669;51.428;21.162;2022-07-03T04:03:36;16.60;99.90
44886;DHT22;36669;51.428;21.162;2022-07-03T04:06:02;16.60;99.90
44886;DHT22;36669;51.428;21.162;2022-07-03T04:08:28;16.70;99.90
44886;DHT22;36669;51.428;21.162;2022-07-03T04:10:56;16.70;99.90
44886;DHT22;36669;51.428;21.162;2022-07-03T04:13:24;16.70;99.90
44886;DHT22;36669;51.428;21.162;2022-07-03T04:15:52;16.80;99.90
44886;DHT22;36669;51.428;21.162;2022-07-03T04:18:20;16.80;99.90
44886;DHT22;36669;51.428;21.162;2022-07-03T04:20:45;16.90;99.90
44886;DHT22;36669;51.428;21.162;2022-07-03T04:23:12;16.90;99.90
44886;DHT22;36669;51.428;21.162;2022-07-03T04:25:39;16.90;99.90
44886;DHT22;36669;51.428;21.162;2022-07-03T04:28:09;17.00;99.90
44886;DHT22;36669;51.428;21.162;2022-07-03T04:30:36;17.00;99.90
44886;DHT22;36669;51.428;21.162;2022-07-03T04:33:02;17.00;99.90
44886;DHT22;36669;51.428;21.162;2022-07-03T04:35:29;17.00;99.90
44886;DHT22;36669;51.428;21.162;2022-07-03T04:37:54;17.10;99.90
44886;DHT22;36669;51.428;21.162;2022-07-03T04:40:21;17.10;99.90
44886;DHT22;36669;51.428;21.162;2022-07-03T04:42:48;17.10;99.90
44886;DHT22;36669;51.428;21.162;2022-07-03T04:45:15;17.20;99.90
44886;DHT22;36669;51.428;21.162;2022-07-03T04:47:40;17.30;99.90
44886;DHT22;36669;51.428;21.162;2022-07-03T04:50:09;17.40;99.90
44886;DHT22;36669;51.428;21.162;2022-07-03T04:52:37;17.40;99.90
44886;DHT22;36669;51.428;21.162;2022-07-03T04:55:05;17.50;99.90
44886;DHT22;36669;51.428;21.162;2022-07-03T04:57:32;17.50;99.90
44886;DHT22;36669;51.428;21.162;2022-07-03T05:00:00;17.50;99.90
44886;DHT22;36669;51.428;21.162;2022-07-03T05:02:27;17.60;99.90
44886;DHT22;36669;51.428;21.162;2022-07-03T05:04:53;17.60;99.90
44886;DHT22;36669;51.428;21.162;2022-07-03T05:07:20;17.70;99.90
44886;DHT22;36669;51.428;21.162;2022-07-03T05:09:47;17.70;99.90
44886;DHT22;36669;51.428;21.162;2022-07-03T05:12:15;17.70;99.90
44886;DHT22;36669;51.428;21.162;2022-07-03T05:14:41;17.80;99.90
44886;DHT22;36669;51.428;21.162;2022-07-03T05:17:08;17.80;99.90
44886;DHT22;36669;51.428;21.162;2022-07-03T05:19:46;17.80;99.90
44886;DHT22;36669;51.428;21.162;2022-07-03T05:22:13;17.90;99.90
44886;DHT22;36669;51.428;21.162;2022-07-03T05:24:38;17.90;99.90
44886;DHT22;36669;51.428;21.162;2022-07-03T05:27:05;17.90;99.90
44886;DHT22;36669;51.428;21.162;2022-07-03T05:29:32;17.90;99.90
44886;DHT22;36669;51.428;21.162;2022-07-03T05:31:59;17.90;99.90
44886;DHT22;36669;51.428;21.162;2022-07-03T05:34:26;18.00;99.90
44886;DHT22;36669;51.428;21.162;2022-07-03T05:36:54;18.10;99.90
44886;DHT22;36669;51.428;21.162;2022-07-03T05:39:21;18.10;99.90
44886;DHT22;36669;51.428;21.162;2022-07-03T05:41:47;18.10;99.90
44886;DHT22;36669;51.428;21.162;2022-07-03T05:44:15;18.20;99.90
44886;DHT22;36669;51.428;21.162;2022-07-03T05:46:42;18.30;99.90
44886;DHT22;36669;51.428;21.162;2022-07-03T05:49:09;18.30;99.90
44886;DHT22;36669;51.428;21.162;2022-07-03T05:51:37;18.40;99.90
44886;DHT22;36669;51.428;21.162;2022-07-03T05:54:05;18.40;99.90
44886;DHT22;36669;51.428;21.162;2022-07-03T05:56:33;18.40;99.90
44886;DHT22;36669;51.428;21.162;2022-07-03T05:59:00;18.40;99.90
44886;DHT22;36669;51.428;21.162;2022-07-03T06:01:25;18.40;99.90
44886;DHT22;36669;51.428;21.162;2022-07-03T06:03:53;18.50;99.90
44886;DHT22;36669;51.428;21.162;2022-07-03T06:06:21;18.50;99.90
44886;DHT22;36669;51.428;21.162;2022-07-03T06:08:50;18.50;99.90
44886;DHT22;36669;51.428;21.162;2022-07-03T06:11:17;18.50;99.90
44886;DHT22;36669;51.428;21.162;2022-07-03T06:13:45;18.60;99.90
44886;DHT22;36669;51.428;21.162;2022-07-03T06:16:12;18.60;99.90
44886;DHT22;36669;51.428;21.162;2022-07-03T06:18:38;18.60;99.90
44886;DHT22;36669;51.428;21.162;2022-07-03T06:21:05;18.70;99.90
44886;DHT22;36669;51.428;21.162;2022-07-03T06:23:31;18.70;99.90
44886;DHT22;36669;51.428;21.162;2022-07-03T06:26:00;18.70;99.90
44886;DHT22;36669;51.428;21.162;2022-07-03T06:28:26;18.70;99.90
44886;DHT22;36669;51.428;21.162;2022-07-03T06:30:53;18.70;99.90
44886;DHT22;36669;51.428;21.162;2022-07-03T06:33:21;18.70;99.90
44886;DHT22;36669;51.428;21.162;2022-07-03T06:35:47;18.80;99.90
44886;DHT22;36669;51.428;21.162;2022-07-03T06:38:14;18.80;99.90
44886;DHT22;36669;51.428;21.162;2022-07-03T06:40:41;18.90;99.90
44886;DHT22;36669;51.428;21.162;2022-07-03T06:43:08;18.90;99.90
44886;DHT22;36669;51.428;21.162;2022-07-03T06:45:35;19.00;99.90
44886;DHT22;36669;51.428;21.162;2022-07-03T06:48:01;19.00;99.90
44886;DHT22;36669;51.428;21.162;2022-07-03T06:50:29;19.10;99.90
44886;DHT22;36669;51.428;21.162;2022-07-03T06:52:56;19.30;99.90
44886;DHT22;36669;51.428;21.162;2022-07-03T06:55:23;19.30;99.90
44886;DHT22;36669;51.428;21.162;2022-07-03T06:57:51;19.40;99.90
44886;DHT22;36669;51.428;21.162;2022-07-03T07:00:17;19.30;99.90
44886;DHT22;36669;51.428;21.162;2022-07-03T07:02:44;19.40;99.90
44886;DHT22;36669;51.428;21.162;2022-07-03T07:05:11;19.50;99.90
44886;DHT22;36669;51.428;21.162;2022-07-03T07:07:38;19.60;99.90
44886;DHT22;36669;51.428;21.162;2022-07-03T07:10:04;19.70;99.90
44886;DHT22;36669;51.428;21.162;2022-07-03T07:12:34;19.70;99.90
44886;DHT22;36669;51.428;21.162;2022-07-03T07:15:01;19.80;99.90
44886;DHT22;36669;51.428;21.162;2022-07-03T07:17:29;19.90;99.90
44886;DHT22;36669;51.428;21.162;2022-07-03T07:19:55;19.90;99.90
44886;DHT22;36669;51.428;21.162;2022-07-03T07:22:21;19.90;99.90
44886;DHT22;36669;51.428;21.162;2022-07-03T07:24:49;19.90;99.90
44886;DHT22;36669;51.428;21.162;2022-07-03T07:27:17;19.80;99.90
44886;DHT22;36669;51.428;21.162;2022-07-03T07:29:49;19.90;99.90
44886;DHT22;36669;51.428;21.162;2022-07-03T07:32:17;19.70;99.90
44886;DHT22;36669;51.428;21.162;2022-07-03T07:34:44;19.80;99.90
44886;DHT22;36669;51.428;21.162;2022-07-03T07:37:10;19.80;99.90
44886;DHT22;36669;51.428;21.162;2022-07-03T07:39:37;19.90;99.90
44886;DHT22;36669;51.428;21.162;2022-07-03T07:42:04;20.10;99.90
44886;DHT22;36669;51.428;21.162;2022-07-03T07:44:31;20.20;99.90
44886;DHT22;36669;51.428;21.162;2022-07-03T07:46:57;20.30;99.90
44886;DHT22;36669;51.428;21.162;2022-07-03T07:49:25;20.40;99.90
44886;DHT22;36669;51.428;21.162;2022-07-03T07:51:51;20.50;99.90
44886;DHT22;36669;51.428;21.162;2022-07-03T07:54:19;20.50;99.90
44886;DHT22;36669;51.428;21.162;2022-07-03T07:56:46;20.50;99.90
44886;DHT22;36669;51.428;21.162;2022-07-03T07:59:13;20.50;99.90
44886;DHT22;36669;51.428;21.162;2022-07-03T08:01:41;20.40;99.90
44886;DHT22;36669;51.428;21.162;2022-07-03T08:04:08;20.40;99.90
44886;DHT22;36669;51.428;21.162;2022-07-03T08:06:35;20.70;99.90
44886;DHT22;36669;51.428;21.162;2022-07-03T08:09:05;20.70;99.90
44886;DHT22;36669;51.428;21.162;2022-07-03T08:11:34;20.80;99.90
44886;DHT22;36669;51.428;21.162;2022-07-03T08:14:01;20.90;99.90
44886;DHT22;36669;51.428;21.162;2022-07-03T08:16:28;20.80;99.90
44886;DHT22;36669;51.428;21.162;2022-07-03T08:18:55;20.80;99.90
44886;DHT22;36669;51.428;21.162;2022-07-03T08:21:22;21.00;99.90
44886;DHT22;36669;51.428;21.162;2022-07-03T08:23:49;21.30;99.90
44886;DHT22;36669;51.428;21.162;2022-07-03T08:26:16;21.70;99.90
44886;DHT22;36669;51.428;21.162;2022-07-03T08:28:44;21.80;99.90
44886;DHT22;36669;51.428;21.162;2022-07-03T08:31:11;21.90;99.90
44886;DHT22;36669;51.428;21.162;2022-07-03T08:33:38;21.80;99.90
44886;DHT22;36669;51.428;21.162;2022-07-03T08:36:08;21.70;99.90
44886;DHT22;36669;51.428;21.162;2022-07-03T08:38:48;21.70;99.90
44886;DHT22;36669;51.428;21.162;2022-07-03T08:41:16;21.50;99.90
44886;DHT22;36669;51.428;21.162;2022-07-03T08:43:47;21.70;99.90
44886;DHT22;36669;51.428;21.162;2022-07-03T08:46:15;21.70;99.90
44886;DHT22;36669;51.428;21.162;2022-07-03T08:48:43;21.70;99.90
44886;DHT22;36669;51.428;21.162;2022-07-03T08:51:13;21.80;99.90
44886;DHT22;36669;51.428;21.162;2022-07-03T08:53:50;21.90;99.90
44886;DHT22;36669;51.428;21.162;2022-07-03T08:56:18;22.10;99.90
44886;DHT22;36669;51.428;21.162;2022-07-03T08:58:46;22.00;99.90
44886;DHT22;36669;51.428;21.162;2022-07-03T09:01:24;22.00;99.90
44886;DHT22;36669;51.428;21.162;2022-07-03T09:03:52;22.00;99.90
44886;DHT22;36669;51.428;21.162;2022-07-03T09:06:20;21.90;99.90
44886;DHT22;36669;51.428;21.162;2022-07-03T09:08:47;22.10;99.90
44886;DHT22;36669;51.428;21.162;2022-07-03T09:11:15;22.30;99.90
44886;DHT22;36669;51.428;21.162;2022-07-03T09:13:44;22.30;99.90
44886;DHT22;36669;51.428;21.162;2022-07-03T09:16:18;22.40;99.90
44886;DHT22;36669;51.428;21.162;2022-07-03T09:18:45;22.60;99.90
44886;DHT22;36669;51.428;21.162;2022-07-03T09:21:11;22.70;99.90
44886;DHT22;36669;51.428;21.162;2022-07-03T09:23:41;22.70;99.90
44886;DHT22;36669;51.428;21.162;2022-07-03T09:26:15;22.80;99.90
44886;DHT22;36669;51.428;21.162;2022-07-03T09:28:55;23.10;99.90
44886;DHT22;36669;51.428;21.162;2022-07-03T09:31:28;23.30;99.90
44886;DHT22;36669;51.428;21.162;2022-07-03T09:34:02;23.50;99.90
44886;DHT22;36669;51.428;21.162;2022-07-03T09:36:49;23.60;99.90
44886;DHT22;36669;51.428;21.162;2022-07-03T09:39:30;23.80;99.90
44886;DHT22;36669;51.428;21.162;2022-07-03T09:42:10;23.90;99.90
44886;DHT22;36669;51.428;21.162;2022-07-03T09:44:47;24.10;99.90
44886;DHT22;36669;51.428;21.162;2022-07-03T09:47:25;24.10;99.90
44886;DHT22;36669;51.428;21.162;2022-07-03T09:50:04;23.90;99.90
44886;DHT22;36669;51.428;21.162;2022-07-03T09:52:47;23.80;99.90
44886;DHT22;36669;51.428;21.162;2022-07-03T09:55:21;23.60;99.90
44886;DHT22;36669;51.428;21.162;2022-07-03T10:00:33;23.60;99.90
44886;DHT22;36669;51.428;21.162;2022-07-03T10:03:10;23.60;99.90
44886;DHT22;36669;51.428;21.162;2022-07-03T10:05:42;23.60;99.90
44886;DHT22;36669;51.428;21.162;2022-07-03T10:08:10;23.70;99.90
44886;DHT22;36669;51.428;21.162;2022-07-03T10:10:40;23.90;99.90
44886;DHT22;36669;51.428;21.162;2022-07-03T10:13:12;23.90;99.90
44886;DHT22;36669;51.428;21.162;2022-07-03T10:15:47;24.00;99.90
44886;DHT22;36669;51.428;21.162;2022-07-03T10:18:14;24.30;99.90
44886;DHT22;36669;51.428;21.162;2022-07-03T10:20:51;24.40;99.90
44886;DHT22;36669;51.428;21.162;2022-07-03T10:23:28;24.40;99.90
44886;DHT22;36669;51.428;21.162;2022-07-03T10:25:55;24.80;99.90
44886;DHT22;36669;51.428;21.162;2022-07-03T10:28:21;25.10;99.90
44886;DHT22;36669;51.428;21.162;2022-07-03T10:30:49;25.20;99.90
44886;DHT22;36669;51.428;21.162;2022-07-03T10:33:17;25.20;99.90
44886;DHT22;36669;51.428;21.162;2022-07-03T10:35:52;25.30;99.90
44886;DHT22;36669;51.428;21.162;2022-07-03T10:38:38;25.50;99.90
44886;DHT22;36669;51.428;21.162;2022-07-03T10:43:58;25.80;99.90
44886;DHT22;36669;51.428;21.162;2022-07-03T10:46:27;25.90;99.90
44886;DHT22;36669;51.428;21.162;2022-07-03T10:49:06;25.60;99.90
44886;DHT22;36669;51.428;21.162;2022-07-03T10:51:56;25.60;99.90
44886;DHT22;36669;51.428;21.162;2022-07-03T10:54:27;25.40;99.90
44886;DHT22;36669;51.428;21.162;2022-07-03T10:57:15;25.60;99.90
44886;DHT22;36669;51.428;21.162;2022-07-03T11:02:38;25.90;99.90
44886;DHT22;36669;51.428;21.162;2022-07-03T11:10:31;25.90;99.90
44886;DHT22;36669;51.428;21.162;2022-07-03T11:13:09;26.20;99.90
44886;DHT22;36669;51.428;21.162;2022-07-03T11:15:52;26.50;99.90
44886;DHT22;36669;51.428;21.162;2022-07-03T11:18:32;26.50;99.90
44886;DHT22;36669;51.428;21.162;2022-07-03T11:24:59;26.30;99.90
44886;DHT22;36669;51.428;21.162;2022-07-03T11:27:46;25.90;99.90
44886;DHT22;36669;51.428;21.162;2022-07-03T11:30:05;25.60;99.90
44886;DHT22;36669;51.428;21.162;2022-07-03T11:32:52;25.50;99.90
44886;DHT22;36669;51.428;21.162;2022-07-03T11:35:47;25.10;99.90
44886;DHT22;36669;51.428;21.162;2022-07-03T11:38:17;25.00;99.90
44886;DHT22;36669;51.428;21.162;2022-07-03T11:40:45;25.00;99.90
44886;DHT22;36669;51.428;21.162;2022-07-03T11:43:14;25.00;99.90
44886;DHT22;36669;51.428;21.162;2022-07-03T11:45:41;25.20;99.90
44886;DHT22;36669;51.428;21.162;2022-07-03T11:48:12;25.50;99.90
44886;DHT22;36669;51.428;21.162;2022-07-03T11:50:44;25.80;99.90
44886;DHT22;36669;51.428;21.162;2022-07-03T11:53:32;26.10;99.90
44886;DHT22;36669;51.428;21.162;2022-07-03T11:58:52;25.70;99.90
44886;DHT22;36669;51.428;21.162;2022-07-03T12:01:37;25.90;99.90
44886;DHT22;36669;51.428;21.162;2022-07-03T12:04:20;26.30;99.90
44886;DHT22;36669;51.428;21.162;2022-07-03T12:06:53;26.40;99.90
44886;DHT22;36669;51.428;21.162;2022-07-03T12:09:36;26.30;99.90
44886;DHT22;36669;51.428;21.162;2022-07-03T12:12:11;26.30;99.90
44886;DHT22;36669;51.428;21.162;2022-07-03T12:14:50;26.50;99.90
44886;DHT22;36669;51.428;21.162;2022-07-03T12:17:26;26.70;99.90
44886;DHT22;36669;51.428;21.162;2022-07-03T12:19:57;26.80;99.90
44886;DHT22;36669;51.428;21.162;2022-07-03T12:22:36;26.90;99.90
44886;DHT22;36669;51.428;21.162;2022-07-03T12:25:17;27.30;99.90
44886;DHT22;36669;51.428;21.162;2022-07-03T12:27:44;27.40;99.90
44886;DHT22;36669;51.428;21.162;2022-07-03T12:30:20;27.50;99.90
44886;DHT22;36669;51.428;21.162;2022-07-03T12:32:49;27.70;99.90
44886;DHT22;36669;51.428;21.162;2022-07-03T12:35:26;28.10;99.90
44886;DHT22;36669;51.428;21.162;2022-07-03T12:37:55;28.40;99.90
44886;DHT22;36669;51.428;21.162;2022-07-03T12:40:23;28.40;99.90
44886;DHT22;36669;51.428;21.162;2022-07-03T12:42:52;28.50;99.90
44886;DHT22;36669;51.428;21.162;2022-07-03T12:45:22;28.70;99.90
44886;DHT22;36669;51.428;21.162;2022-07-03T12:48:04;29.20;99.90
44886;DHT22;36669;51.428;21.162;2022-07-03T12:50:46;29.50;99.90
44886;DHT22;36669;51.428;21.162;2022-07-03T12:53:34;29.70;99.90
44886;DHT22;36669;51.428;21.162;2022-07-03T12:56:05;29.90;99.90
44886;DHT22;36669;51.428;21.162;2022-07-03T12:58:36;29.80;99.90
44886;DHT22;36669;51.428;21.162;2022-07-03T13:01:06;29.80;99.90
44886;DHT22;36669;51.428;21.162;2022-07-03T13:03:50;30.00;99.90
44886;DHT22;36669;51.428;21.162;2022-07-03T13:06:17;29.40;99.90
44886;DHT22;36669;51.428;21.162;2022-07-03T13:09:03;28.30;99.90
44886;DHT22;36669;51.428;21.162;2022-07-03T13:11:35;27.90;99.90
44886;DHT22;36669;51.428;21.162;2022-07-03T13:14:16;27.70;99.90
44886;DHT22;36669;51.428;21.162;2022-07-03T13:16:50;27.10;99.90
44886;DHT22;36669;51.428;21.162;2022-07-03T13:19:25;26.80;99.90
44886;DHT22;36669;51.428;21.162;2022-07-03T13:21:53;26.90;99.90
44886;DHT22;36669;51.428;21.162;2022-07-03T13:24:20;27.40;99.90
44886;DHT22;36669;51.428;21.162;2022-07-03T13:26:49;28.00;99.90
44886;DHT22;36669;51.428;21.162;2022-07-03T13:29:16;28.10;99.90
44886;DHT22;36669;51.428;21.162;2022-07-03T13:31:44;28.30;99.90
44886;DHT22;36669;51.428;21.162;2022-07-03T13:34:11;27.90;99.90
44886;DHT22;36669;51.428;21.162;2022-07-03T13:36:39;27.50;99.90
44886;DHT22;36669;51.428;21.162;2022-07-03T13:39:05;27.20;99.90
44886;DHT22;36669;51.428;21.162;2022-07-03T13:41:33;26.70;99.90
44886;DHT22;36669;51.428;21.162;2022-07-03T13:44:00;26.60;99.90
44886;DHT22;36669;51.428;21.162;2022-07-03T13:46:27;26.50;99.90
44886;DHT22;36669;51.428;21.162;2022-07-03T13:48:55;26.50;99.90
44886;DHT22;36669;51.428;21.162;2022-07-03T13:51:23;26.50;99.90
44886;DHT22;36669;51.428;21.162;2022-07-03T13:53:49;26.40;99.90
44886;DHT22;36669;51.428;21.162;2022-07-03T13:56:19;26.30;99.90
44886;DHT22;36669;51.428;21.162;2022-07-03T13:58:46;26.60;99.90
44886;DHT22;36669;51.428;21.162;2022-07-03T14:01:14;27.40;99.90
44886;DHT22;36669;51.428;21.162;2022-07-03T14:03:42;29.80;99.90
44886;DHT22;36669;51.428;21.162;2022-07-03T14:06:09;30.70;98.30
44886;DHT22;36669;51.428;21.162;2022-07-03T14:08:36;32.40;94.10
44886;DHT22;36669;51.428;21.162;2022-07-03T14:11:03;32.10;91.00
44886;DHT22;36669;51.428;21.162;2022-07-03T14:13:31;32.30;90.30
44886;DHT22;36669;51.428;21.162;2022-07-03T14:15:59;33.20;87.30
44886;DHT22;36669;51.428;21.162;2022-07-03T14:18:26;33.10;83.40
44886;DHT22;36669;51.428;21.162;2022-07-03T14:20:54;33.70;81.60
44886;DHT22;36669;51.428;21.162;2022-07-03T14:23:22;33.60;78.30
44886;DHT22;36669;51.428;21.162;2022-07-03T14:25:51;33.80;78.10
44886;DHT22;36669;51.428;21.162;2022-07-03T14:28:18;34.50;74.50
44886;DHT22;36669;51.428;21.162;2022-07-03T14:30:45;35.10;73.30
44886;DHT22;36669;51.428;21.162;2022-07-03T14:33:14;35.20;70.50
44886;DHT22;36669;51.428;21.162;2022-07-03T14:35:41;34.90;70.00
44886;DHT22;36669;51.428;21.162;2022-07-03T14:38:09;34.80;68.20
44886;DHT22;36669;51.428;21.162;2022-07-03T14:40:35;32.90;71.70
44886;DHT22;36669;51.428;21.162;2022-07-03T14:43:02;32.40;74.70
44886;DHT22;36669;51.428;21.162;2022-07-03T14:45:29;31.10;77.80
44886;DHT22;36669;51.428;21.162;2022-07-03T14:47:56;30.20;80.80
44886;DHT22;36669;51.428;21.162;2022-07-03T14:50:24;29.20;85.40
44886;DHT22;36669;51.428;21.162;2022-07-03T14:52:52;28.40;90.60
44886;DHT22;36669;51.428;21.162;2022-07-03T14:55:19;27.80;94.50
44886;DHT22;36669;51.428;21.162;2022-07-03T14:58:19;27.60;96.40
44886;DHT22;36669;51.428;21.162;2022-07-03T15:00:52;27.50;98.10
44886;DHT22;36669;51.428;21.162;2022-07-03T15:03:33;27.40;99.90
44886;DHT22;36669;51.428;21.162;2022-07-03T15:06:02;28.10;99.90
44886;DHT22;36669;51.428;21.162;2022-07-03T15:08:58;28.90;97.60
44886;DHT22;36669;51.428;21.162;2022-07-03T15:12:02;29.10;95.90
44886;DHT22;36669;51.428;21.162;2022-07-03T15:14:32;29.00;95.80
44886;DHT22;36669;51.428;21.162;2022-07-03T15:17:02;28.90;96.20
44886;DHT22;36669;51.428;21.162;2022-07-03T15:19:29;29.10;96.40
44886;DHT22;36669;51.428;21.162;2022-07-03T15:21:58;29.50;95.70
44886;DHT22;36669;51.428;21.162;2022-07-03T15:24:26;29.60;94.20
44886;DHT22;36669;51.428;21.162;2022-07-03T15:26:57;29.60;93.20
44886;DHT22;36669;51.428;21.162;2022-07-03T15:29:25;29.40;94.30
44886;DHT22;36669;51.428;21.162;2022-07-03T15:31:54;29.50;93.70
44886;DHT22;36669;51.428;21.162;2022-07-03T15:34:21;29.40;93.70
44886;DHT22;36669;51.428;21.162;2022-07-03T15:36:53;29.60;93.60
44886;DHT22;36669;51.428;21.162;2022-07-03T15:42:51;30.00;92.60
44886;DHT22;36669;51.428;21.162;2022-07-03T15:51:41;29.90;92.00
44886;DHT22;36669;51.428;21.162;2022-07-03T15:54:36;29.90;92.60
44886;DHT22;36669;51.428;21.162;2022-07-03T16:00:06;30.30;91.20
44886;DHT22;36669;51.428;21.162;2022-07-03T16:05:30;30.00;90.90
44886;DHT22;36669;51.428;21.162;2022-07-03T16:07:58;30.00;91.50
44886;DHT22;36669;51.428;21.162;2022-07-03T16:10:26;29.70;91.60
44886;DHT22;36669;51.428;21.162;2022-07-03T16:12:53;29.40;92.60
44886;DHT22;36669;51.428;21.162;2022-07-03T16:15:22;28.60;93.90
44886;DHT22;36669;51.428;21.162;2022-07-03T16:17:49;28.70;93.70
44886;DHT22;36669;51.428;21.162;2022-07-03T16:20:16;29.10;93.30
44886;DHT22;36669;51.428;21.162;2022-07-03T16:22:45;29.50;92.30
44886;DHT22;36669;51.428;21.162;2022-07-03T16:25:12;29.80;92.00
44886;DHT22;36669;51.428;21.162;2022-07-03T16:27:39;30.10;91.90
44886;DHT22;36669;51.428;21.162;2022-07-03T16:30:06;30.90;90.70
44886;DHT22;36669;51.428;21.162;2022-07-03T16:32:43;31.10;88.80
44886;DHT22;36669;51.428;21.162;2022-07-03T16:35:26;31.80;87.20
44886;DHT22;36669;51.428;21.162;2022-07-03T16:38:02;32.20;84.40
44886;DHT22;36669;51.428;21.162;2022-07-03T16:40:29;31.70;83.70
44886;DHT22;36669;51.428;21.162;2022-07-03T16:43:03;31.50;83.80
44886;DHT22;36669;51.428;21.162;2022-07-03T16:45:33;31.30;83.60
44886;DHT22;36669;51.428;21.162;2022-07-03T16:48:18;30.60;85.90
44886;DHT22;36669;51.428;21.162;2022-07-03T16:50:57;30.20;89.00